sensor_id;sensor_type;location;lat;lon;timestamp;temperature;humidity
23233;DHT22;11785;49.500;8.288;2023-04-03T00:01:09;3.60;99.90
23233;DHT22;11785;49.500;8.288;2023-04-03T00:03:36;3.50;99.90
23233;DHT22;11785;49.500;8.288;2023-04-03T00:06:03;3.50;99.90
23233;DHT22;11785;49.500;8.288;2023-04-03T00:08:29;3.40;99.90
23233;DHT22;11785;49.500;8.288;2023-04-03T00:10:56;3.40;99.90
23233;DHT22;11785;49.500;8.288;2023-04-03T00:13:22;3.30;99.90
23233;DHT22;11785;49.500;8.288;2023-04-03T00:15:48;3.30;99.90
23233;DHT22;11785;49.500;8.288;2023-04-03T00:18:13;3.20;99.90
23233;DHT22;11785;49.500;8.288;2023-04-03T00:20:39;3.20;99.90
23233;DHT22;11785;49.500;8.288;2023-04-03T00:23:05;3.10;99.90
23233;DHT22;11785;49.500;8.288;2023-04-03T00:25:30;3.10;99.90
23233;DHT22;11785;49.500;8.288;2023-04-03T00:27:56;3.10;99.90
23233;DHT22;11785;49.500;8.288;2023-04-03T00:30:22;3.10;99.90
23233;DHT22;11785;49.500;8.288;2023-04-03T00:32:49;3.10;99.90
23233;DHT22;11785;49.500;8.288;2023-04-03T00:35:15;3.10;99.90
23233;DHT22;11785;49.500;8.288;2023-04-03T00:37:42;3.20;99.90
23233;DHT22;11785;49.500;8.288;2023-04-03T00:40:09;3.20;99.90
23233;DHT22;11785;49.500;8.288;2023-04-03T00:42:36;3.20;99.90
23233;DHT22;11785;49.500;8.288;2023-04-03T00:47:29;3.30;99.90
23233;DHT22;11785;49.500;8.288;2023-04-03T00:49:57;3.30;99.90
23233;DHT22;11785;49.500;8.288;2023-04-03T00:52:26;3.30;99.90
23233;DHT22;11785;49.500;8.288;2023-04-03T00:55:12;3.30;99.90
23233;DHT22;11785;49.500;8.288;2023-04-03T00:57:40;3.30;99.90
23233;DHT22;11785;49.500;8.288;2023-04-03T01:00:12;3.20;99.90
23233;DHT22;11785;49.500;8.288;2023-04-03T01:02:38;3.20;99.90
23233;DHT22;11785;49.500;8.288;2023-04-03T01:05:06;3.20;99.90
23233;DHT22;11785;49.500;8.288;2023-04-03T01:07:32;3.10;99.90
23233;DHT22;11785;49.500;8.288;2023-04-03T01:10:05;3.20;99.90
23233;DHT22;11785;49.500;8.288;2023-04-03T01:12:38;3.10;99.90
23233;DHT22;11785;49.500;8.288;2023-04-03T01:15:13;3.00;99.90
23233;DHT22;11785;49.500;8.288;2023-04-03T01:17:42;3.10;99.90
23233;DHT22;11785;49.500;8.288;2023-04-03T01:23:12;2.80;99.90
23233;DHT22;11785;49.500;8.288;2023-04-03T01:25:47;2.60;99.90
23233;DHT22;11785;49.500;8.288;2023-04-03T01:28:22;2.60;99.90
23233;DHT22;11785;49.500;8.288;2023-04-03T01:31:28;2.60;99.90
23233;DHT22;11785;49.500;8.288;2023-04-03T01:33:57;2.60;99.90
23233;DHT22;11785;49.500;8.288;2023-04-03T01:36:28;2.70;99.90
23233;DHT22;11785;49.500;8.288;2023-04-03T01:38:55;2.80;99.90
23233;DHT22;11785;49.500;8.288;2023-04-03T01:41:22;2.80;99.90
23233;DHT22;11785;49.500;8.288;2023-04-03T01:43:48;2.70;99.90
23233;DHT22;11785;49.500;8.288;2023-04-03T01:46:16;2.70;99.90
23233;DHT22;11785;49.500;8.288;2023-04-03T01:48:41;2.80;99.90
23233;DHT22;11785;49.500;8.288;2023-04-03T01:51:07;2.80;99.90
23233;DHT22;11785;49.500;8.288;2023-04-03T01:53:33;2.70;99.90
23233;DHT22;11785;49.500;8.288;2023-04-03T01:55:59;2.80;99.90
23233;DHT22;11785;49.500;8.288;2023-04-03T01:58:24;2.70;99.90
23233;DHT22;11785;49.500;8.288;2023-04-03T02:00:51;2.70;99.90
23233;DHT22;11785;49.500;8.288;2023-04-03T02:03:16;2.70;99.90
23233;DHT22;11785;49.500;8.288;2023-04-03T02:05:42;2.70;99.90
23233;DHT22;11785;49.500;8.288;2023-04-03T02:08:07;2.70;99.90
23233;DHT22;11785;49.500;8.288;2023-04-03T02:10:33;2.80;99.90
23233;DHT22;11785;49.500;8.288;2023-04-03T02:12:59;2.80;99.90
23233;DHT22;11785;49.500;8.288;2023-04-03T02:15:24;2.80;99.90
23233;DHT22;11785;49.500;8.288;2023-04-03T02:17:50;2.80;99.90
23233;DHT22;11785;49.500;8.288;2023-04-03T02:20:15;2.70;99.90
23233;DHT22;11785;49.500;8.288;2023-04-03T02:22:41;2.70;99.90
23233;DHT22;11785;49.500;8.288;2023-04-03T02:25:07;2.70;99.90
23233;DHT22;11785;49.500;8.288;2023-04-03T02:27:33;2.70;99.90
23233;DHT22;11785;49.500;8.288;2023-04-03T02:29:58;2.60;99.90
23233;DHT22;11785;49.500;8.288;2023-04-03T02:32:24;2.60;99.90
23233;DHT22;11785;49.500;8.288;2023-04-03T02:34:49;2.40;99.90
23233;DHT22;11785;49.500;8.288;2023-04-03T02:37:15;2.30;99.90
23233;DHT22;11785;49.500;8.288;2023-04-03T02:39:41;2.30;99.90
23233;DHT22;11785;49.500;8.288;2023-04-03T02:42:06;2.20;99.90
23233;DHT22;11785;49.500;8.288;2023-04-03T02:44:32;2.20;99.90
23233;DHT22;11785;49.500;8.288;2023-04-03T02:46:58;2.20;99.90
23233;DHT22;11785;49.500;8.288;2023-04-03T02:49:24;2.30;99.90
23233;DHT22;11785;49.500;8.288;2023-04-03T02:51:49;2.20;99.90
23233;DHT22;11785;49.500;8.288;2023-04-03T02:54:16;2.10;99.90
23233;DHT22;11785;49.500;8.288;2023-04-03T02:56:42;2.10;99.90
23233;DHT22;11785;49.500;8.288;2023-04-03T02:59:07;2.20;99.90
23233;DHT22;11785;49.500;8.288;2023-04-03T03:01:33;2.20;99.90
23233;DHT22;11785;49.500;8.288;2023-04-03T03:04:02;2.20;99.90
23233;DHT22;11785;49.500;8.288;2023-04-03T03:06:27;2.10;99.90
23233;DHT22;11785;49.500;8.288;2023-04-03T03:08:53;2.10;99.90
23233;DHT22;11785;49.500;8.288;2023-04-03T03:11:19;2.10;99.90
23233;DHT22;11785;49.500;8.288;2023-04-03T03:13:45;2.00;99.90
23233;DHT22;11785;49.500;8.288;2023-04-03T03:16:10;2.00;99.90
23233;DHT22;11785;49.500;8.288;2023-04-03T03:18:36;1.90;99.90
23233;DHT22;11785;49.500;8.288;2023-04-03T03:21:03;1.80;99.90
23233;DHT22;11785;49.500;8.288;2023-04-03T03:23:30;1.90;99.90
23233;DHT22;11785;49.500;8.288;2023-04-03T03:26:09;1.90;99.90
23233;DHT22;11785;49.500;8.288;2023-04-03T03:28:36;1.90;99.90
23233;DHT22;11785;49.500;8.288;2023-04-03T03:31:02;1.90;99.90
23233;DHT22;11785;49.500;8.288;2023-04-03T03:33:28;2.00;99.90
23233;DHT22;11785;49.500;8.288;2023-04-03T03:35:54;1.90;99.90
23233;DHT22;11785;49.500;8.288;2023-04-03T03:38:20;1.80;99.90
23233;DHT22;11785;49.500;8.288;2023-04-03T03:40:50;1.80;99.90
23233;DHT22;11785;49.500;8.288;2023-04-03T03:43:16;1.90;99.90
23233;DHT22;11785;49.500;8.288;2023-04-03T03:45:42;1.90;99.90
23233;DHT22;11785;49.500;8.288;2023-04-03T03:48:07;1.90;99.90
23233;DHT22;11785;49.500;8.288;2023-04-03T03:50:33;2.00;99.90
23233;DHT22;11785;49.500;8.288;2023-04-03T03:52:59;1.90;99.90
23233;DHT22;11785;49.500;8.288;2023-04-03T03:55:24;1.80;99.90
23233;DHT22;11785;49.500;8.288;2023-04-03T03:57:50;1.70;99.90
23233;DHT22;11785;49.500;8.288;2023-04-03T04:00:16;1.60;99.90
23233;DHT22;11785;49.500;8.288;2023-04-03T04:02:42;1.60;99.90
23233;DHT22;11785;49.500;8.288;2023-04-03T04:05:08;1.50;99.90
23233;DHT22;11785;49.500;8.288;2023-04-03T04:07:33;1.50;99.90
23233;DHT22;11785;49.500;8.288;2023-04-03T04:09:59;1.40;99.90
23233;DHT22;11785;49.500;8.288;2023-04-03T04:12:25;1.40;99.90
23233;DHT22;11785;49.500;8.288;2023-04-03T04:14:50;1.40;99.90
23233;DHT22;11785;49.500;8.288;2023-04-03T04:17:16;1.30;99.90
23233;DHT22;11785;49.500;8.288;2023-04-03T04:19:41;1.30;99.90
23233;DHT22;11785;49.500;8.288;2023-04-03T04:22:07;1.30;99.90
23233;DHT22;11785;49.500;8.288;2023-04-03T04:24:33;1.20;99.90
23233;DHT22;11785;49.500;8.288;2023-04-03T04:26:58;1.20;99.90
23233;DHT22;11785;49.500;8.288;2023-04-03T04:29:24;1.30;99.90
23233;DHT22;11785;49.500;8.288;2023-04-03T04:31:50;1.30;99.90
23233;DHT22;11785;49.500;8.288;2023-04-03T04:34:15;1.40;99.90
23233;DHT22;11785;49.500;8.288;2023-04-03T04:36:41;1.40;99.90
23233;DHT22;11785;49.500;8.288;2023-04-03T04:39:07;1.40;99.90
23233;DHT22;11785;49.500;8.288;2023-04-03T04:41:33;1.40;99.90
23233;DHT22;11785;49.500;8.288;2023-04-03T04:43:59;1.40;99.90
23233;DHT22;11785;49.500;8.288;2023-04-03T04:46:25;1.40;99.90
23233;DHT22;11785;49.500;8.288;2023-04-03T04:48:51;1.50;99.90
23233;DHT22;11785;49.500;8.288;2023-04-03T04:51:16;1.50;99.90
23233;DHT22;11785;49.500;8.288;2023-04-03T04:53:42;1.50;99.90
23233;DHT22;11785;49.500;8.288;2023-04-03T04:56:08;1.50;99.90
23233;DHT22;11785;49.500;8.288;2023-04-03T04:58:33;1.50;99.90
23233;DHT22;11785;49.500;8.288;2023-04-03T05:01:04;1.50;99.90
23233;DHT22;11785;49.500;8.288;2023-04-03T05:03:30;1.50;99.90
23233;DHT22;11785;49.500;8.288;2023-04-03T05:05:56;1.50;99.90
23233;DHT22;11785;49.500;8.288;2023-04-03T05:08:22;1.50;99.90
23233;DHT22;11785;49.500;8.288;2023-04-03T05:10:47;1.60;99.90
23233;DHT22;11785;49.500;8.288;2023-04-03T05:13:13;1.70;99.90
23233;DHT22;11785;49.500;8.288;2023-04-03T05:15:39;1.80;99.90
23233;DHT22;11785;49.500;8.288;2023-04-03T05:18:05;1.90;99.90
23233;DHT22;11785;49.500;8.288;2023-04-03T05:20:31;2.00;99.90
23233;DHT22;11785;49.500;8.288;2023-04-03T05:22:57;2.00;99.90
23233;DHT22;11785;49.500;8.288;2023-04-03T05:25:22;2.00;99.90
23233;DHT22;11785;49.500;8.288;2023-04-03T05:27:48;2.10;99.90
23233;DHT22;11785;49.500;8.288;2023-04-03T05:30:14;2.20;99.90
23233;DHT22;11785;49.500;8.288;2023-04-03T05:32:39;2.20;99.90
23233;DHT22;11785;49.500;8.288;2023-04-03T05:35:06;2.20;99.90
23233;DHT22;11785;49.500;8.288;2023-04-03T05:37:33;2.30;99.90
23233;DHT22;11785;49.500;8.288;2023-04-03T05:39:58;2.40;99.90
23233;DHT22;11785;49.500;8.288;2023-04-03T05:42:24;2.50;99.90
23233;DHT22;11785;49.500;8.288;2023-04-03T05:44:49;2.60;99.90
23233;DHT22;11785;49.500;8.288;2023-04-03T05:47:16;2.70;99.90
23233;DHT22;11785;49.500;8.288;2023-04-03T05:49:41;2.80;99.90
23233;DHT22;11785;49.500;8.288;2023-04-03T05:52:26;2.90;99.90
23233;DHT22;11785;49.500;8.288;2023-04-03T05:54:52;3.00;99.90
23233;DHT22;11785;49.500;8.288;2023-04-03T05:57:19;3.10;99.90
23233;DHT22;11785;49.500;8.288;2023-04-03T05:59:45;3.30;99.90
23233;DHT22;11785;49.500;8.288;2023-04-03T06:02:13;3.40;99.90
23233;DHT22;11785;49.500;8.288;2023-04-03T06:04:38;3.40;99.90
23233;DHT22;11785;49.500;8.288;2023-04-03T06:07:04;3.50;99.90
23233;DHT22;11785;49.500;8.288;2023-04-03T06:09:30;3.50;99.90
23233;DHT22;11785;49.500;8.288;2023-04-03T06:11:56;3.60;99.90
23233;DHT22;11785;49.500;8.288;2023-04-03T06:14:24;3.60;99.90
23233;DHT22;11785;49.500;8.288;2023-04-03T06:16:51;3.60;99.90
23233;DHT22;11785;49.500;8.288;2023-04-03T06:19:16;3.70;99.90
23233;DHT22;11785;49.500;8.288;2023-04-03T06:21:42;3.70;99.90
23233;DHT22;11785;49.500;8.288;2023-04-03T06:24:13;3.70;99.90
23233;DHT22;11785;49.500;8.288;2023-04-03T06:26:39;3.80;99.90
23233;DHT22;11785;49.500;8.288;2023-04-03T06:29:05;3.80;99.90
23233;DHT22;11785;49.500;8.288;2023-04-03T06:31:30;3.90;99.90
23233;DHT22;11785;49.500;8.288;2023-04-03T06:33:56;3.90;99.90
23233;DHT22;11785;49.500;8.288;2023-04-03T06:36:22;4.00;99.90
23233;DHT22;11785;49.500;8.288;2023-04-03T06:38:48;4.00;99.90
23233;DHT22;11785;49.500;8.288;2023-04-03T06:41:14;4.10;99.90
23233;DHT22;11785;49.500;8.288;2023-04-03T06:43:42;4.10;99.90
23233;DHT22;11785;49.500;8.288;2023-04-03T06:46:15;4.20;99.90
23233;DHT22;11785;49.500;8.288;2023-04-03T06:48:43;4.30;99.90
23233;DHT22;11785;49.500;8.288;2023-04-03T06:51:18;4.30;99.90
23233;DHT22;11785;49.500;8.288;2023-04-03T06:53:44;4.40;99.90
23233;DHT22;11785;49.500;8.288;2023-04-03T06:56:09;4.50;99.90
23233;DHT22;11785;49.500;8.288;2023-04-03T06:58:35;4.60;99.90
23233;DHT22;11785;49.500;8.288;2023-04-03T07:01:01;4.70;99.90
23233;DHT22;11785;49.500;8.288;2023-04-03T07:03:26;4.80;99.90
23233;DHT22;11785;49.500;8.288;2023-04-03T07:05:52;4.80;99.90
23233;DHT22;11785;49.500;8.288;2023-04-03T07:08:18;4.80;99.90
23233;DHT22;11785;49.500;8.288;2023-04-03T07:10:44;4.90;99.90
23233;DHT22;11785;49.500;8.288;2023-04-03T07:13:09;5.00;99.90
23233;DHT22;11785;49.500;8.288;2023-04-03T07:15:35;5.10;99.90
23233;DHT22;11785;49.500;8.288;2023-04-03T07:18:02;5.20;99.90
23233;DHT22;11785;49.500;8.288;2023-04-03T07:20:28;5.20;99.90
23233;DHT22;11785;49.500;8.288;2023-04-03T07:22:53;5.30;99.90
23233;DHT22;11785;49.500;8.288;2023-04-03T07:25:19;5.30;99.90
23233;DHT22;11785;49.500;8.288;2023-04-03T07:27:45;5.30;99.90
23233;DHT22;11785;49.500;8.288;2023-04-03T07:30:11;5.40;99.90
23233;DHT22;11785;49.500;8.288;2023-04-03T07:32:36;5.60;99.90
23233;DHT22;11785;49.500;8.288;2023-04-03T07:35:03;5.70;99.90
23233;DHT22;11785;49.500;8.288;2023-04-03T07:37:28;5.80;99.90
23233;DHT22;11785;49.500;8.288;2023-04-03T07:39:54;5.80;99.10
23233;DHT22;11785;49.500;8.288;2023-04-03T07:42:20;5.80;99.20
23233;DHT22;11785;49.500;8.288;2023-04-03T07:44:46;6.00;98.50
23233;DHT22;11785;49.500;8.288;2023-04-03T07:47:12;5.90;98.30
23233;DHT22;11785;49.500;8.288;2023-04-03T07:49:40;5.90;98.30
23233;DHT22;11785;49.500;8.288;2023-04-03T07:52:06;6.00;97.70
23233;DHT22;11785;49.500;8.288;2023-04-03T07:54:33;6.00;97.80
23233;DHT22;11785;49.500;8.288;2023-04-03T07:56:59;6.10;97.40
23233;DHT22;11785;49.500;8.288;2023-04-03T07:59:25;6.20;97.00
23233;DHT22;11785;49.500;8.288;2023-04-03T08:01:51;6.30;97.20
23233;DHT22;11785;49.500;8.288;2023-04-03T08:04:16;6.40;96.40
23233;DHT22;11785;49.500;8.288;2023-04-03T08:06:42;6.50;95.40
23233;DHT22;11785;49.500;8.288;2023-04-03T08:09:08;6.60;94.50
23233;DHT22;11785;49.500;8.288;2023-04-03T08:11:33;6.60;94.20
23233;DHT22;11785;49.500;8.288;2023-04-03T08:13:59;6.60;93.70
23233;DHT22;11785;49.500;8.288;2023-04-03T08:16:25;6.60;94.00
23233;DHT22;11785;49.500;8.288;2023-04-03T08:18:52;6.60;92.90
23233;DHT22;11785;49.500;8.288;2023-04-03T08:21:18;6.70;92.80
23233;DHT22;11785;49.500;8.288;2023-04-03T08:23:43;6.70;92.50
23233;DHT22;11785;49.500;8.288;2023-04-03T08:26:15;7.00;91.70
23233;DHT22;11785;49.500;8.288;2023-04-03T08:28:41;7.10;90.50
23233;DHT22;11785;49.500;8.288;2023-04-03T08:31:10;7.10;89.10
23233;DHT22;11785;49.500;8.288;2023-04-03T08:33:36;7.20;88.40
23233;DHT22;11785;49.500;8.288;2023-04-03T08:36:04;7.30;85.70
23233;DHT22;11785;49.500;8.288;2023-04-03T08:38:30;7.40;80.00
23233;DHT22;11785;49.500;8.288;2023-04-03T08:47:38;8.00;75.10
23233;DHT22;11785;49.500;8.288;2023-04-03T08:49:53;8.50;69.70
23233;DHT22;11785;49.500;8.288;2023-04-03T08:52:41;8.80;67.30
23233;DHT22;11785;49.500;8.288;2023-04-03T08:57:59;9.30;62.80
23233;DHT22;11785;49.500;8.288;2023-04-03T09:00:28;9.30;59.90
23233;DHT22;11785;49.500;8.288;2023-04-03T09:02:56;9.00;59.90
23233;DHT22;11785;49.500;8.288;2023-04-03T09:10:44;8.80;59.90
23233;DHT22;11785;49.500;8.288;2023-04-03T09:19:18;9.30;59.60
23233;DHT22;11785;49.500;8.288;2023-04-03T09:21:47;9.10;59.70
23233;DHT22;11785;49.500;8.288;2023-04-03T09:24:15;9.30;59.60
23233;DHT22;11785;49.500;8.288;2023-04-03T09:26:46;9.30;59.60
23233;DHT22;11785;49.500;8.288;2023-04-03T09:29:22;9.20;59.50
23233;DHT22;11785;49.500;8.288;2023-04-03T09:31:52;9.50;59.40
23233;DHT22;11785;49.500;8.288;2023-04-03T09:34:25;9.90;59.40
23233;DHT22;11785;49.500;8.288;2023-04-03T09:36:54;10.00;59.30
23233;DHT22;11785;49.500;8.288;2023-04-03T09:39:26;10.00;59.40
23233;DHT22;11785;49.500;8.288;2023-04-03T09:42:25;10.00;59.40
23233;DHT22;11785;49.500;8.288;2023-04-03T09:45:26;10.00;59.40
23233;DHT22;11785;49.500;8.288;2023-04-03T09:53:42;9.50;59.40
23233;DHT22;11785;49.500;8.288;2023-04-03T09:58:48;10.30;59.30
23233;DHT22;11785;49.500;8.288;2023-04-03T10:01:27;10.00;59.30
23233;DHT22;11785;49.500;8.288;2023-04-03T10:04:13;9.60;59.40
23233;DHT22;11785;49.500;8.288;2023-04-03T10:06:45;9.30;59.50
23233;DHT22;11785;49.500;8.288;2023-04-03T10:09:18;9.40;59.50
23233;DHT22;11785;49.500;8.288;2023-04-03T10:14:23;8.70;59.70
23233;DHT22;11785;49.500;8.288;2023-04-03T10:16:59;8.90;59.60
23233;DHT22;11785;49.500;8.288;2023-04-03T10:19:36;9.30;59.50
23233;DHT22;11785;49.500;8.288;2023-04-03T10:36:02;9.80;59.30
23233;DHT22;11785;49.500;8.288;2023-04-03T10:46:27;10.30;59.20
23233;DHT22;11785;49.500;8.288;2023-04-03T10:52:13;10.10;59.20
23233;DHT22;11785;49.500;8.288;2023-04-03T10:54:46;11.40;59.00
23233;DHT22;11785;49.500;8.288;2023-04-03T10:57:15;11.20;58.90
23233;DHT22;11785;49.500;8.288;2023-04-03T10:59:53;11.20;58.90
23233;DHT22;11785;49.500;8.288;2023-04-03T11:02:29;11.20;58.90
23233;DHT22;11785;49.500;8.288;2023-04-03T11:05:46;10.80;58.90
23233;DHT22;11785;49.500;8.288;2023-04-03T11:07:49;10.70;59.00
23233;DHT22;11785;49.500;8.288;2023-04-03T11:16:18;10.90;58.90
23233;DHT22;11785;49.500;8.288;2023-04-03T11:18:51;10.90;58.90
23233;DHT22;11785;49.500;8.288;2023-04-03T11:21:21;11.00;58.90
23233;DHT22;11785;49.500;8.288;2023-04-03T11:23:48;11.10;58.90
23233;DHT22;11785;49.500;8.288;2023-04-03T11:26:21;11.40;58.80
23233;DHT22;11785;49.500;8.288;2023-04-03T11:28:53;11.30;58.80
23233;DHT22;11785;49.500;8.288;2023-04-03T11:34:28;10.80;58.90
23233;DHT22;11785;49.500;8.288;2023-04-03T11:36:59;12.00;58.60
23233;DHT22;11785;49.500;8.288;2023-04-03T11:39:33;12.20;58.60
23233;DHT22;11785;49.500;8.288;2023-04-03T11:44:40;12.70;58.40
23233;DHT22;11785;49.500;8.288;2023-04-03T11:47:08;12.30;58.50
23233;DHT22;11785;49.500;8.288;2023-04-03T11:50:30;11.80;58.50
23233;DHT22;11785;49.500;8.288;2023-04-03T11:52:57;11.70;58.60
23233;DHT22;11785;49.500;8.288;2023-04-03T12:05:49;12.00;58.40
23233;DHT22;11785;49.500;8.288;2023-04-03T12:08:30;12.10;58.50
23233;DHT22;11785;49.500;8.288;2023-04-03T12:13:34;12.00;58.50
23233;DHT22;11785;49.500;8.288;2023-04-03T12:16:01;12.00;58.50
23233;DHT22;11785;49.500;8.288;2023-04-03T12:37:50;11.50;58.60
23233;DHT22;11785;49.500;8.288;2023-04-03T12:40:26;11.50;58.60
23233;DHT22;11785;49.500;8.288;2023-04-03T12:45:27;11.20;58.70
23233;DHT22;11785;49.500;8.288;2023-04-03T12:47:55;12.10;58.50
23233;DHT22;11785;49.500;8.288;2023-04-03T12:50:29;12.10;58.50
23233;DHT22;11785;49.500;8.288;2023-04-03T12:53:11;12.00;58.50
23233;DHT22;11785;49.500;8.288;2023-04-03T12:55:37;12.00;58.50
23233;DHT22;11785;49.500;8.288;2023-04-03T12:58:27;11.50;58.60
23233;DHT22;11785;49.500;8.288;2023-04-03T13:01:23;11.50;58.60
23233;DHT22;11785;49.500;8.288;2023-04-03T13:03:55;11.70;58.50
23233;DHT22;11785;49.500;8.288;2023-04-03T13:06:23;12.20;58.50
23233;DHT22;11785;49.500;8.288;2023-04-03T13:08:55;13.00;58.30
23233;DHT22;11785;49.500;8.288;2023-04-03T13:11:23;13.20;58.20
23233;DHT22;11785;49.500;8.288;2023-04-03T13:14:02;13.10;58.20
23233;DHT22;11785;49.500;8.288;2023-04-03T13:16:29;15.10;57.80
23233;DHT22;11785;49.500;8.288;2023-04-03T13:18:55;18.50;57.00
23233;DHT22;11785;49.500;8.288;2023-04-03T13:21:30;20.40;56.30
23233;DHT22;11785;49.500;8.288;2023-04-03T13:24:00;21.90;55.90
23233;DHT22;11785;49.500;8.288;2023-04-03T13:26:30;20.20;56.10
23233;DHT22;11785;49.500;8.288;2023-04-03T13:29:01;19.10;56.40
23233;DHT22;11785;49.500;8.288;2023-04-03T13:31:31;20.60;56.10
23233;DHT22;11785;49.500;8.288;2023-04-03T13:34:13;20.30;56.00
23233;DHT22;11785;49.500;8.288;2023-04-03T13:37:25;19.90;56.20
23233;DHT22;11785;49.500;8.288;2023-04-03T13:40:20;18.20;56.50
23233;DHT22;11785;49.500;8.288;2023-04-03T13:42:45;14.70;57.30
23233;DHT22;11785;49.500;8.288;2023-04-03T13:45:28;13.80;57.70
23233;DHT22;11785;49.500;8.288;2023-04-03T13:53:19;20.00;56.20
23233;DHT22;11785;49.500;8.288;2023-04-03T13:59:06;24.20;55.20
23233;DHT22;11785;49.500;8.288;2023-04-03T14:01:48;24.20;55.10
23233;DHT22;11785;49.500;8.288;2023-04-03T14:04:24;25.10;47.40
23233;DHT22;11785;49.500;8.288;2023-04-03T14:06:49;24.90;54.80
23233;DHT22;11785;49.500;8.288;2023-04-03T14:09:16;25.30;47.50
23233;DHT22;11785;49.500;8.288;2023-04-03T14:11:43;24.70;54.80
23233;DHT22;11785;49.500;8.288;2023-04-03T14:14:14;25.60;47.70
23233;DHT22;11785;49.500;8.288;2023-04-03T14:16:45;23.40;55.10
23233;DHT22;11785;49.500;8.288;2023-04-03T14:19:18;19.10;56.00
23233;DHT22;11785;49.500;8.288;2023-04-03T14:21:45;15.50;56.90
23233;DHT22;11785;49.500;8.288;2023-04-03T14:24:10;14.20;57.20
23233;DHT22;11785;49.500;8.288;2023-04-03T14:26:37;13.20;57.50
23233;DHT22;11785;49.500;8.288;2023-04-03T14:29:03;13.20;57.50
23233;DHT22;11785;49.500;8.288;2023-04-03T14:31:28;14.60;57.20
23233;DHT22;11785;49.500;8.288;2023-04-03T14:33:54;17.90;56.50
23233;DHT22;11785;49.500;8.288;2023-04-03T14:36:24;20.60;55.80
23233;DHT22;11785;49.500;8.288;2023-04-03T14:38:51;22.50;55.40
23233;DHT22;11785;49.500;8.288;2023-04-03T14:41:20;23.40;55.10
23233;DHT22;11785;49.500;8.288;2023-04-03T14:43:47;25.20;47.60
23233;DHT22;11785;49.500;8.288;2023-04-03T14:46:19;24.10;54.80
23233;DHT22;11785;49.500;8.288;2023-04-03T14:48:47;25.00;53.30
23233;DHT22;11785;49.500;8.288;2023-04-03T14:51:14;24.20;54.90
23233;DHT22;11785;49.500;8.288;2023-04-03T14:53:41;24.00;54.80
23233;DHT22;11785;49.500;8.288;2023-04-03T14:56:20;23.20;55.00
23233;DHT22;11785;49.500;8.288;2023-04-03T14:58:48;20.10;55.70
23233;DHT22;11785;49.500;8.288;2023-04-03T15:01:17;17.20;56.40
23233;DHT22;11785;49.500;8.288;2023-04-03T15:03:44;16.20;56.80
23233;DHT22;11785;49.500;8.288;2023-04-03T15:06:12;15.30;56.90
23233;DHT22;11785;49.500;8.288;2023-04-03T15:08:38;16.90;56.60
23233;DHT22;11785;49.500;8.288;2023-04-03T15:11:06;18.70;56.10
23233;DHT22;11785;49.500;8.288;2023-04-03T15:13:32;19.90;55.80
23233;DHT22;11785;49.500;8.288;2023-04-03T15:15:58;19.60;55.80
23233;DHT22;11785;49.500;8.288;2023-04-03T15:18:25;18.70;56.10
23233;DHT22;11785;49.500;8.288;2023-04-03T15:20:53;20.00;55.80
23233;DHT22;11785;49.500;8.288;2023-04-03T15:23:19;20.80;55.60
23233;DHT22;11785;49.500;8.288;2023-04-03T15:25:46;20.40;55.70
23233;DHT22;11785;49.500;8.288;2023-04-03T15:30:46;18.40;56.10
23233;DHT22;11785;49.500;8.288;2023-04-03T15:33:11;18.20;56.20
23233;DHT22;11785;49.500;8.288;2023-04-03T15:35:37;18.30;56.20
23233;DHT22;11785;49.500;8.288;2023-04-03T15:38:02;18.10;56.20
23233;DHT22;11785;49.500;8.288;2023-04-03T15:40:28;18.00;56.20
23233;DHT22;11785;49.500;8.288;2023-04-03T15:42:54;17.80;56.20
23233;DHT22;11785;49.500;8.288;2023-04-03T15:45:19;17.80;56.30
23233;DHT22;11785;49.500;8.288;2023-04-03T15:47:46;17.50;56.30
23233;DHT22;11785;49.500;8.288;2023-04-03T15:50:12;17.30;56.40
23233;DHT22;11785;49.500;8.288;2023-04-03T15:52:37;19.30;56.00
23233;DHT22;11785;49.500;8.288;2023-04-03T15:55:04;21.00;55.60
23233;DHT22;11785;49.500;8.288;2023-04-03T15:57:29;21.00;55.50
23233;DHT22;11785;49.500;8.288;2023-04-03T15:59:55;19.90;55.80
23233;DHT22;11785;49.500;8.288;2023-04-03T16:02:21;19.00;56.00
23233;DHT22;11785;49.500;8.288;2023-04-03T16:04:47;18.20;56.20
23233;DHT22;11785;49.500;8.288;2023-04-03T16:07:13;17.70;56.30
23233;DHT22;11785;49.500;8.288;2023-04-03T16:09:39;17.80;56.30
23233;DHT22;11785;49.500;8.288;2023-04-03T16:12:04;16.80;56.50
23233;DHT22;11785;49.500;8.288;2023-04-03T16:14:30;14.80;57.00
23233;DHT22;11785;49.500;8.288;2023-04-03T16:16:57;15.90;56.80
23233;DHT22;11785;49.500;8.288;2023-04-03T16:19:23;16.10;56.70
23233;DHT22;11785;49.500;8.288;2023-04-03T16:21:49;15.30;56.90
23233;DHT22;11785;49.500;8.288;2023-04-03T16:24:14;14.40;57.10
23233;DHT22;11785;49.500;8.288;2023-04-03T16:26:40;14.00;57.20
23233;DHT22;11785;49.500;8.288;2023-04-03T16:29:06;13.70;57.30
23233;DHT22;11785;49.500;8.288;2023-04-03T16:31:32;13.90;57.20
23233;DHT22;11785;49.500;8.288;2023-04-03T16:33:58;15.40;56.90
23233;DHT22;11785;49.500;8.288;2023-04-03T16:36:24;16.70;56.60
23233;DHT22;11785;49.500;8.288;2023-04-03T16:38:50;16.40;56.70
23233;DHT22;11785;49.500;8.288;2023-04-03T16:41:16;16.10;56.70
23233;DHT22;11785;49.500;8.288;2023-04-03T16:43:42;16.00;56.70
23233;DHT22;11785;49.500;8.288;2023-04-03T16:46:07;15.60;56.80
23233;DHT22;11785;49.500;8.288;2023-04-03T16:48:33;15.80;56.80
23233;DHT22;11785;49.500;8.288;2023-04-03T16:50:59;16.80;56.50
23233;DHT22;11785;49.500;8.288;2023-04-03T16:53:26;16.80;56.50
23233;DHT22;11785;49.500;8.288;2023-04-03T16:55:51;16.60;56.60
23233;DHT22;11785;49.500;8.288;2023-04-03T16:58:17;18.00;56.30
23233;DHT22;11785;49.500;8.288;2023-04-03T17:00:43;18.90;56.10
23233;DHT22;11785;49.500;8.288;2023-04-03T17:03:09;19.00;56.00
23233;DHT22;11785;49.500;8.288;2023-04-03T17:05:34;18.10;56.20
23233;DHT22;11785;49.500;8.288;2023-04-03T17:08:00;15.00;56.90
23233;DHT22;11785;49.500;8.288;2023-04-03T17:10:27;13.40;57.30
23233;DHT22;11785;49.500;8.288;2023-04-03T17:12:54;12.50;57.60
23233;DHT22;11785;49.500;8.288;2023-04-03T17:15:20;11.60;57.80
23233;DHT22;11785;49.500;8.288;2023-04-03T17:17:47;10.90;58.00
23233;DHT22;11785;49.500;8.288;2023-04-03T17:20:14;10.40;58.10
23233;DHT22;11785;49.500;8.288;2023-04-03T17:22:40;10.00;58.20
23233;DHT22;11785;49.500;8.288;2023-04-03T17:25:05;9.80;58.30
23233;DHT22;11785;49.500;8.288;2023-04-03T17:27:31;9.70;58.30
23233;DHT22;11785;49.500;8.288;2023-04-03T17:29:57;9.40;58.40
23233;DHT22;11785;49.500;8.288;2023-04-03T17:32:22;9.30;58.40
23233;DHT22;11785;49.500;8.288;2023-04-03T17:34:50;9.20;58.50
23233;DHT22;11785;49.500;8.288;2023-04-03T17:37:16;9.00;58.50
23233;DHT22;11785;49.500;8.288;2023-04-03T17:39:41;8.80;58.60
23233;DHT22;11785;49.500;8.288;2023-04-03T17:42:07;8.70;58.60
23233;DHT22;11785;49.500;8.288;2023-04-03T17:44:32;8.60;58.60
23233;DHT22;11785;49.500;8.288;2023-04-03T17:46:59;8.50;58.60